sensor_id;sensor_type;location;lat;lon;timestamp;temperature;humidity
59975;DHT22;62136;-35.664;-63.766;2023-04-24T00:01:38;22.40;47.60
59975;DHT22;62136;-35.664;-63.766;2023-04-24T00:04:06;22.30;47.60
59975;DHT22;62136;-35.664;-63.766;2023-04-24T00:06:37;22.40;47.70
59975;DHT22;62136;-35.664;-63.766;2023-04-24T00:09:05;22.30;47.60
59975;DHT22;62136;-35.664;-63.766;2023-04-24T00:11:32;22.30;47.70
59975;DHT22;62136;-35.664;-63.766;2023-04-24T00:13:59;22.30;47.70
59975;DHT22;62136;-35.664;-63.766;2023-04-24T00:16:26;22.30;47.80
59975;DHT22;62136;-35.664;-63.766;2023-04-24T00:18:53;22.20;47.80
59975;DHT22;62136;-35.664;-63.766;2023-04-24T00:21:20;22.20;47.90
59975;DHT22;62136;-35.664;-63.766;2023-04-24T00:23:48;22.20;47.90
59975;DHT22;62136;-35.664;-63.766;2023-04-24T00:26:15;22.20;47.90
59975;DHT22;62136;-35.664;-63.766;2023-04-24T00:28:42;22.20;48.00
59975;DHT22;62136;-35.664;-63.766;2023-04-24T00:31:09;22.10;47.90
59975;DHT22;62136;-35.664;-63.766;2023-04-24T00:33:36;22.10;47.90
59975;DHT22;62136;-35.664;-63.766;2023-04-24T00:36:03;22.10;48.00
59975;DHT22;62136;-35.664;-63.766;2023-04-24T00:38:30;22.10;48.00
59975;DHT22;62136;-35.664;-63.766;2023-04-24T00:40:57;22.10;48.20
59975;DHT22;62136;-35.664;-63.766;2023-04-24T00:43:24;22.10;48.10
59975;DHT22;62136;-35.664;-63.766;2023-04-24T00:45:51;22.10;48.20
59975;DHT22;62136;-35.664;-63.766;2023-04-24T00:48:19;22.00;48.20
59975;DHT22;62136;-35.664;-63.766;2023-04-24T00:50:47;22.00;48.20
59975;DHT22;62136;-35.664;-63.766;2023-04-24T00:53:14;22.00;48.20
59975;DHT22;62136;-35.664;-63.766;2023-04-24T00:55:41;22.00;48.20
59975;DHT22;62136;-35.664;-63.766;2023-04-24T00:58:08;22.00;48.20
59975;DHT22;62136;-35.664;-63.766;2023-04-24T01:00:35;22.00;48.20
59975;DHT22;62136;-35.664;-63.766;2023-04-24T01:03:05;22.00;48.20
59975;DHT22;62136;-35.664;-63.766;2023-04-24T01:05:32;22.00;48.30
59975;DHT22;62136;-35.664;-63.766;2023-04-24T01:08:00;22.00;48.40
59975;DHT22;62136;-35.664;-63.766;2023-04-24T01:10:30;22.00;48.40
59975;DHT22;62136;-35.664;-63.766;2023-04-24T01:12:58;21.90;48.40
59975;DHT22;62136;-35.664;-63.766;2023-04-24T01:15:26;21.90;48.40
59975;DHT22;62136;-35.664;-63.766;2023-04-24T01:17:59;21.90;48.40
59975;DHT22;62136;-35.664;-63.766;2023-04-24T01:20:26;21.90;48.40
59975;DHT22;62136;-35.664;-63.766;2023-04-24T01:22:56;21.90;48.40
59975;DHT22;62136;-35.664;-63.766;2023-04-24T01:25:24;21.90;48.50
59975;DHT22;62136;-35.664;-63.766;2023-04-24T01:27:51;21.90;48.60
59975;DHT22;62136;-35.664;-63.766;2023-04-24T01:30:18;21.90;48.60
59975;DHT22;62136;-35.664;-63.766;2023-04-24T01:32:46;21.90;48.60
59975;DHT22;62136;-35.664;-63.766;2023-04-24T01:35:13;21.90;48.60
59975;DHT22;62136;-35.664;-63.766;2023-04-24T01:37:40;21.90;48.70
59975;DHT22;62136;-35.664;-63.766;2023-04-24T01:40:08;21.80;49.10
59975;DHT22;62136;-35.664;-63.766;2023-04-24T01:42:36;21.80;48.70
59975;DHT22;62136;-35.664;-63.766;2023-04-24T01:45:04;21.80;48.60
59975;DHT22;62136;-35.664;-63.766;2023-04-24T01:47:33;21.80;48.70
59975;DHT22;62136;-35.664;-63.766;2023-04-24T01:50:00;21.80;48.80
59975;DHT22;62136;-35.664;-63.766;2023-04-24T01:52:27;21.90;48.80
59975;DHT22;62136;-35.664;-63.766;2023-04-24T01:55:00;21.90;48.80
59975;DHT22;62136;-35.664;-63.766;2023-04-24T01:57:27;21.80;48.90
59975;DHT22;62136;-35.664;-63.766;2023-04-24T01:59:57;21.80;49.00
59975;DHT22;62136;-35.664;-63.766;2023-04-24T02:02:24;21.80;48.90
59975;DHT22;62136;-35.664;-63.766;2023-04-24T02:04:54;21.80;48.90
59975;DHT22;62136;-35.664;-63.766;2023-04-24T02:07:21;21.80;48.90
59975;DHT22;62136;-35.664;-63.766;2023-04-24T02:09:48;21.70;48.90
59975;DHT22;62136;-35.664;-63.766;2023-04-24T02:12:15;21.70;48.90
59975;DHT22;62136;-35.664;-63.766;2023-04-24T02:14:44;21.70;49.00
59975;DHT22;62136;-35.664;-63.766;2023-04-24T02:17:11;21.70;49.00
59975;DHT22;62136;-35.664;-63.766;2023-04-24T02:19:39;21.70;49.10
59975;DHT22;62136;-35.664;-63.766;2023-04-24T02:22:06;21.70;49.20
59975;DHT22;62136;-35.664;-63.766;2023-04-24T02:24:33;21.70;49.20
59975;DHT22;62136;-35.664;-63.766;2023-04-24T02:27:00;21.60;49.10
59975;DHT22;62136;-35.664;-63.766;2023-04-24T02:29:28;21.60;49.20
59975;DHT22;62136;-35.664;-63.766;2023-04-24T02:31:58;21.60;49.30
59975;DHT22;62136;-35.664;-63.766;2023-04-24T02:34:25;21.60;49.40
59975;DHT22;62136;-35.664;-63.766;2023-04-24T02:36:52;21.60;49.30
59975;DHT22;62136;-35.664;-63.766;2023-04-24T02:39:20;21.60;49.30
59975;DHT22;62136;-35.664;-63.766;2023-04-24T02:41:47;21.60;49.40
59975;DHT22;62136;-35.664;-63.766;2023-04-24T02:44:14;21.60;49.40
59975;DHT22;62136;-35.664;-63.766;2023-04-24T02:46:41;21.50;49.30
59975;DHT22;62136;-35.664;-63.766;2023-04-24T02:49:08;21.60;49.40
59975;DHT22;62136;-35.664;-63.766;2023-04-24T02:51:35;21.50;49.40
59975;DHT22;62136;-35.664;-63.766;2023-04-24T02:54:07;21.60;49.50
59975;DHT22;62136;-35.664;-63.766;2023-04-24T02:56:36;21.50;49.50
59975;DHT22;62136;-35.664;-63.766;2023-04-24T02:59:04;21.50;49.50
59975;DHT22;62136;-35.664;-63.766;2023-04-24T03:01:31;21.50;49.50
59975;DHT22;62136;-35.664;-63.766;2023-04-24T03:03:58;21.50;49.90
59975;DHT22;62136;-35.664;-63.766;2023-04-24T03:06:25;21.50;49.50
59975;DHT22;62136;-35.664;-63.766;2023-04-24T03:08:53;21.50;49.50
59975;DHT22;62136;-35.664;-63.766;2023-04-24T03:11:20;21.50;49.60
59975;DHT22;62136;-35.664;-63.766;2023-04-24T03:13:47;21.50;49.60
59975;DHT22;62136;-35.664;-63.766;2023-04-24T03:16:15;21.40;49.60
59975;DHT22;62136;-35.664;-63.766;2023-04-24T03:18:42;21.40;49.60
59975;DHT22;62136;-35.664;-63.766;2023-04-24T03:21:09;21.40;49.70
59975;DHT22;62136;-35.664;-63.766;2023-04-24T03:23:36;21.50;49.70
59975;DHT22;62136;-35.664;-63.766;2023-04-24T03:26:03;21.40;49.70
59975;DHT22;62136;-35.664;-63.766;2023-04-24T03:28:30;21.40;49.80
59975;DHT22;62136;-35.664;-63.766;2023-04-24T03:30:57;21.40;49.80
59975;DHT22;62136;-35.664;-63.766;2023-04-24T03:33:24;21.40;49.80
59975;DHT22;62136;-35.664;-63.766;2023-04-24T03:35:51;21.40;49.70
59975;DHT22;62136;-35.664;-63.766;2023-04-24T03:38:19;21.40;49.70
59975;DHT22;62136;-35.664;-63.766;2023-04-24T03:40:46;21.40;49.80
59975;DHT22;62136;-35.664;-63.766;2023-04-24T03:43:13;21.40;49.70
59975;DHT22;62136;-35.664;-63.766;2023-04-24T03:45:40;21.50;49.70
59975;DHT22;62136;-35.664;-63.766;2023-04-24T03:48:07;21.50;49.70
59975;DHT22;62136;-35.664;-63.766;2023-04-24T03:50:34;21.40;49.60
59975;DHT22;62136;-35.664;-63.766;2023-04-24T03:53:01;21.50;49.60
59975;DHT22;62136;-35.664;-63.766;2023-04-24T03:55:31;21.50;49.80
59975;DHT22;62136;-35.664;-63.766;2023-04-24T03:58:04;21.40;49.70
59975;DHT22;62136;-35.664;-63.766;2023-04-24T04:00:32;21.40;49.80
59975;DHT22;62136;-35.664;-63.766;2023-04-24T04:02:59;21.40;49.80
59975;DHT22;62136;-35.664;-63.766;2023-04-24T04:05:26;21.40;49.80
59975;DHT22;62136;-35.664;-63.766;2023-04-24T04:07:53;21.50;49.80
59975;DHT22;62136;-35.664;-63.766;2023-04-24T04:10:20;21.50;49.70
59975;DHT22;62136;-35.664;-63.766;2023-04-24T04:12:47;21.50;49.70
59975;DHT22;62136;-35.664;-63.766;2023-04-24T04:15:14;21.50;49.70
59975;DHT22;62136;-35.664;-63.766;2023-04-24T04:17:41;21.50;49.80
59975;DHT22;62136;-35.664;-63.766;2023-04-24T04:20:09;21.40;49.60
59975;DHT22;62136;-35.664;-63.766;2023-04-24T04:22:37;21.50;49.70
59975;DHT22;62136;-35.664;-63.766;2023-04-24T04:25:04;21.50;49.80
59975;DHT22;62136;-35.664;-63.766;2023-04-24T04:27:32;21.50;49.80
59975;DHT22;62136;-35.664;-63.766;2023-04-24T04:30:00;21.40;49.70
59975;DHT22;62136;-35.664;-63.766;2023-04-24T04:32:32;21.40;49.70
59975;DHT22;62136;-35.664;-63.766;2023-04-24T04:35:02;21.40;49.80
59975;DHT22;62136;-35.664;-63.766;2023-04-24T04:37:30;21.40;49.80
59975;DHT22;62136;-35.664;-63.766;2023-04-24T04:39:57;21.40;49.80
59975;DHT22;62136;-35.664;-63.766;2023-04-24T04:42:28;21.40;49.80
59975;DHT22;62136;-35.664;-63.766;2023-04-24T04:44:55;21.40;49.80
59975;DHT22;62136;-35.664;-63.766;2023-04-24T04:47:23;21.40;49.90
59975;DHT22;62136;-35.664;-63.766;2023-04-24T04:49:51;21.40;49.90
59975;DHT22;62136;-35.664;-63.766;2023-04-24T04:52:20;21.40;50.00
59975;DHT22;62136;-35.664;-63.766;2023-04-24T04:54:51;21.30;49.90
59975;DHT22;62136;-35.664;-63.766;2023-04-24T04:57:18;21.40;50.00
59975;DHT22;62136;-35.664;-63.766;2023-04-24T04:59:45;21.30;50.10
59975;DHT22;62136;-35.664;-63.766;2023-04-24T05:02:12;21.30;50.00
59975;DHT22;62136;-35.664;-63.766;2023-04-24T05:04:39;21.30;50.20
59975;DHT22;62136;-35.664;-63.766;2023-04-24T05:07:06;21.30;50.10
59975;DHT22;62136;-35.664;-63.766;2023-04-24T05:09:33;21.30;50.20
59975;DHT22;62136;-35.664;-63.766;2023-04-24T05:12:00;21.30;50.20
59975;DHT22;62136;-35.664;-63.766;2023-04-24T05:14:28;21.30;50.20
59975;DHT22;62136;-35.664;-63.766;2023-04-24T05:16:55;21.30;50.20
59975;DHT22;62136;-35.664;-63.766;2023-04-24T05:19:22;21.30;50.10
59975;DHT22;62136;-35.664;-63.766;2023-04-24T05:21:49;21.30;50.20
59975;DHT22;62136;-35.664;-63.766;2023-04-24T05:24:16;21.30;50.30
59975;DHT22;62136;-35.664;-63.766;2023-04-24T05:26:43;21.30;50.30
59975;DHT22;62136;-35.664;-63.766;2023-04-24T05:29:10;21.30;50.30
59975;DHT22;62136;-35.664;-63.766;2023-04-24T05:31:38;21.30;50.30
59975;DHT22;62136;-35.664;-63.766;2023-04-24T05:34:05;21.30;50.30
59975;DHT22;62136;-35.664;-63.766;2023-04-24T05:36:32;21.20;50.30
59975;DHT22;62136;-35.664;-63.766;2023-04-24T05:38:59;21.20;50.40
59975;DHT22;62136;-35.664;-63.766;2023-04-24T05:41:26;21.20;50.40
59975;DHT22;62136;-35.664;-63.766;2023-04-24T05:43:53;21.20;50.50
59975;DHT22;62136;-35.664;-63.766;2023-04-24T05:46:20;21.20;50.20
59975;DHT22;62136;-35.664;-63.766;2023-04-24T05:48:47;21.20;50.50
59975;DHT22;62136;-35.664;-63.766;2023-04-24T05:51:14;21.20;50.60
59975;DHT22;62136;-35.664;-63.766;2023-04-24T05:53:41;21.20;50.60
59975;DHT22;62136;-35.664;-63.766;2023-04-24T05:56:08;21.20;50.50
59975;DHT22;62136;-35.664;-63.766;2023-04-24T05:58:35;21.10;50.50
59975;DHT22;62136;-35.664;-63.766;2023-04-24T06:01:03;21.20;50.60
59975;DHT22;62136;-35.664;-63.766;2023-04-24T06:03:31;21.10;50.60
59975;DHT22;62136;-35.664;-63.766;2023-04-24T06:05:58;21.10;51.00
59975;DHT22;62136;-35.664;-63.766;2023-04-24T06:08:25;21.10;50.70
59975;DHT22;62136;-35.664;-63.766;2023-04-24T06:10:52;21.10;50.80
59975;DHT22;62136;-35.664;-63.766;2023-04-24T06:13:19;21.10;50.80
59975;DHT22;62136;-35.664;-63.766;2023-04-24T06:15:46;21.10;50.70
59975;DHT22;62136;-35.664;-63.766;2023-04-24T06:18:13;21.10;50.70
59975;DHT22;62136;-35.664;-63.766;2023-04-24T06:20:40;21.10;50.90
59975;DHT22;62136;-35.664;-63.766;2023-04-24T06:23:07;21.10;50.90
59975;DHT22;62136;-35.664;-63.766;2023-04-24T06:25:34;21.00;50.80
59975;DHT22;62136;-35.664;-63.766;2023-04-24T06:28:01;21.10;50.90
59975;DHT22;62136;-35.664;-63.766;2023-04-24T06:30:28;21.10;50.90
59975;DHT22;62136;-35.664;-63.766;2023-04-24T06:32:55;21.00;50.90
59975;DHT22;62136;-35.664;-63.766;2023-04-24T06:35:23;21.00;50.90
59975;DHT22;62136;-35.664;-63.766;2023-04-24T06:37:50;21.00;50.80
59975;DHT22;62136;-35.664;-63.766;2023-04-24T06:40:17;21.00;51.00
59975;DHT22;62136;-35.664;-63.766;2023-04-24T06:42:47;21.00;51.00
59975;DHT22;62136;-35.664;-63.766;2023-04-24T06:45:14;21.00;51.10
59975;DHT22;62136;-35.664;-63.766;2023-04-24T06:47:41;21.00;51.10
59975;DHT22;62136;-35.664;-63.766;2023-04-24T06:50:08;21.00;51.10
59975;DHT22;62136;-35.664;-63.766;2023-04-24T06:52:35;21.00;51.20
59975;DHT22;62136;-35.664;-63.766;2023-04-24T06:55:03;20.90;51.10
59975;DHT22;62136;-35.664;-63.766;2023-04-24T06:57:31;20.90;51.00
59975;DHT22;62136;-35.664;-63.766;2023-04-24T06:59:57;20.90;51.30
59975;DHT22;62136;-35.664;-63.766;2023-04-24T07:02:25;20.90;51.10
59975;DHT22;62136;-35.664;-63.766;2023-04-24T07:04:52;20.90;51.20
59975;DHT22;62136;-35.664;-63.766;2023-04-24T07:07:19;20.90;51.40
59975;DHT22;62136;-35.664;-63.766;2023-04-24T07:09:47;20.90;51.30
59975;DHT22;62136;-35.664;-63.766;2023-04-24T07:12:14;20.90;51.40
59975;DHT22;62136;-35.664;-63.766;2023-04-24T07:14:43;20.80;51.20
59975;DHT22;62136;-35.664;-63.766;2023-04-24T07:17:10;20.80;51.40
59975;DHT22;62136;-35.664;-63.766;2023-04-24T07:19:39;20.80;51.40
59975;DHT22;62136;-35.664;-63.766;2023-04-24T07:22:06;20.80;51.40
59975;DHT22;62136;-35.664;-63.766;2023-04-24T07:24:33;20.80;51.20
59975;DHT22;62136;-35.664;-63.766;2023-04-24T07:27:00;20.80;51.50
59975;DHT22;62136;-35.664;-63.766;2023-04-24T07:29:33;20.80;51.40
59975;DHT22;62136;-35.664;-63.766;2023-04-24T07:32:00;20.80;51.30
59975;DHT22;62136;-35.664;-63.766;2023-04-24T07:34:27;20.80;51.50
59975;DHT22;62136;-35.664;-63.766;2023-04-24T07:36:54;20.80;51.60
59975;DHT22;62136;-35.664;-63.766;2023-04-24T07:39:21;20.80;51.60
59975;DHT22;62136;-35.664;-63.766;2023-04-24T07:41:48;20.70;51.70
59975;DHT22;62136;-35.664;-63.766;2023-04-24T07:44:15;20.70;51.70
59975;DHT22;62136;-35.664;-63.766;2023-04-24T07:46:42;20.70;51.80
59975;DHT22;62136;-35.664;-63.766;2023-04-24T07:49:09;20.70;51.60
59975;DHT22;62136;-35.664;-63.766;2023-04-24T07:51:36;20.70;51.70
59975;DHT22;62136;-35.664;-63.766;2023-04-24T07:54:07;20.70;51.80
59975;DHT22;62136;-35.664;-63.766;2023-04-24T07:56:34;20.70;51.80
59975;DHT22;62136;-35.664;-63.766;2023-04-24T07:59:05;20.70;51.80
59975;DHT22;62136;-35.664;-63.766;2023-04-24T08:01:32;20.70;51.90
59975;DHT22;62136;-35.664;-63.766;2023-04-24T08:03:59;20.70;52.00
59975;DHT22;62136;-35.664;-63.766;2023-04-24T08:06:26;20.60;51.60
59975;DHT22;62136;-35.664;-63.766;2023-04-24T08:08:57;20.60;52.00
59975;DHT22;62136;-35.664;-63.766;2023-04-24T08:11:25;20.60;51.90
59975;DHT22;62136;-35.664;-63.766;2023-04-24T08:13:52;20.60;52.00
59975;DHT22;62136;-35.664;-63.766;2023-04-24T08:16:20;20.60;51.90
59975;DHT22;62136;-35.664;-63.766;2023-04-24T08:18:47;20.60;52.10
59975;DHT22;62136;-35.664;-63.766;2023-04-24T08:21:14;20.60;52.10
59975;DHT22;62136;-35.664;-63.766;2023-04-24T08:23:44;20.60;52.20
59975;DHT22;62136;-35.664;-63.766;2023-04-24T08:26:11;20.60;52.10
59975;DHT22;62136;-35.664;-63.766;2023-04-24T08:28:39;20.60;52.20
59975;DHT22;62136;-35.664;-63.766;2023-04-24T08:31:05;20.60;52.20
59975;DHT22;62136;-35.664;-63.766;2023-04-24T08:33:32;20.50;52.20
59975;DHT22;62136;-35.664;-63.766;2023-04-24T08:36:06;20.60;52.20
59975;DHT22;62136;-35.664;-63.766;2023-04-24T08:38:34;20.50;52.10
59975;DHT22;62136;-35.664;-63.766;2023-04-24T08:41:01;20.50;52.20
59975;DHT22;62136;-35.664;-63.766;2023-04-24T08:43:29;20.50;52.30
59975;DHT22;62136;-35.664;-63.766;2023-04-24T08:45:57;20.50;52.30
59975;DHT22;62136;-35.664;-63.766;2023-04-24T08:48:25;20.50;52.50
59975;DHT22;62136;-35.664;-63.766;2023-04-24T08:50:53;20.50;52.50
59975;DHT22;62136;-35.664;-63.766;2023-04-24T08:53:20;20.50;52.40
59975;DHT22;62136;-35.664;-63.766;2023-04-24T08:55:48;20.50;52.50
59975;DHT22;62136;-35.664;-63.766;2023-04-24T09:00:42;20.40;52.30
59975;DHT22;62136;-35.664;-63.766;2023-04-24T09:03:15;20.40;52.50
59975;DHT22;62136;-35.664;-63.766;2023-04-24T09:05:47;20.40;52.50
59975;DHT22;62136;-35.664;-63.766;2023-04-24T09:08:17;20.40;52.50
59975;DHT22;62136;-35.664;-63.766;2023-04-24T09:10:45;20.40;52.40
59975;DHT22;62136;-35.664;-63.766;2023-04-24T09:13:12;20.40;52.60
59975;DHT22;62136;-35.664;-63.766;2023-04-24T09:15:40;20.40;52.70
59975;DHT22;62136;-35.664;-63.766;2023-04-24T09:18:07;20.40;52.60
59975;DHT22;62136;-35.664;-63.766;2023-04-24T09:20:34;20.40;52.60
59975;DHT22;62136;-35.664;-63.766;2023-04-24T09:23:02;20.40;52.70
59975;DHT22;62136;-35.664;-63.766;2023-04-24T09:25:33;20.40;52.70
59975;DHT22;62136;-35.664;-63.766;2023-04-24T09:28:03;20.30;52.70
59975;DHT22;62136;-35.664;-63.766;2023-04-24T09:30:30;20.30;52.70
59975;DHT22;62136;-35.664;-63.766;2023-04-24T09:33:12;20.30;52.70
59975;DHT22;62136;-35.664;-63.766;2023-04-24T09:35:41;20.40;52.70
59975;DHT22;62136;-35.664;-63.766;2023-04-24T09:38:09;20.30;52.70
59975;DHT22;62136;-35.664;-63.766;2023-04-24T09:40:37;20.30;52.80
59975;DHT22;62136;-35.664;-63.766;2023-04-24T09:43:04;20.30;52.90
59975;DHT22;62136;-35.664;-63.766;2023-04-24T09:45:40;20.30;52.90
59975;DHT22;62136;-35.664;-63.766;2023-04-24T09:48:10;20.30;52.90
59975;DHT22;62136;-35.664;-63.766;2023-04-24T09:50:37;20.30;52.90
59975;DHT22;62136;-35.664;-63.766;2023-04-24T09:53:05;20.30;52.90
59975;DHT22;62136;-35.664;-63.766;2023-04-24T09:55:44;20.20;53.00
59975;DHT22;62136;-35.664;-63.766;2023-04-24T09:58:16;20.20;52.90
59975;DHT22;62136;-35.664;-63.766;2023-04-24T10:00:46;20.30;53.10
59975;DHT22;62136;-35.664;-63.766;2023-04-24T10:03:13;20.20;53.00
59975;DHT22;62136;-35.664;-63.766;2023-04-24T10:05:40;20.20;53.20
59975;DHT22;62136;-35.664;-63.766;2023-04-24T10:08:10;20.20;53.10
59975;DHT22;62136;-35.664;-63.766;2023-04-24T10:10:42;20.20;53.20
59975;DHT22;62136;-35.664;-63.766;2023-04-24T10:13:10;20.10;53.20
59975;DHT22;62136;-35.664;-63.766;2023-04-24T10:15:38;20.20;53.20
59975;DHT22;62136;-35.664;-63.766;2023-04-24T10:18:07;20.20;53.20
59975;DHT22;62136;-35.664;-63.766;2023-04-24T10:20:37;20.10;53.20
59975;DHT22;62136;-35.664;-63.766;2023-04-24T10:23:05;20.10;53.20
59975;DHT22;62136;-35.664;-63.766;2023-04-24T10:25:34;20.10;53.30
59975;DHT22;62136;-35.664;-63.766;2023-04-24T10:28:02;20.10;53.20
59975;DHT22;62136;-35.664;-63.766;2023-04-24T10:30:34;20.10;53.30
59975;DHT22;62136;-35.664;-63.766;2023-04-24T10:33:05;20.10;53.40
59975;DHT22;62136;-35.664;-63.766;2023-04-24T10:35:39;20.10;53.40
59975;DHT22;62136;-35.664;-63.766;2023-04-24T10:38:11;20.10;53.40
59975;DHT22;62136;-35.664;-63.766;2023-04-24T10:40:39;20.10;53.40
59975;DHT22;62136;-35.664;-63.766;2023-04-24T10:43:07;20.10;53.20
59975;DHT22;62136;-35.664;-63.766;2023-04-24T10:45:38;20.10;53.50
59975;DHT22;62136;-35.664;-63.766;2023-04-24T10:48:07;20.10;53.50
59975;DHT22;62136;-35.664;-63.766;2023-04-24T10:50:52;20.00;53.50
59975;DHT22;62136;-35.664;-63.766;2023-04-24T10:53:23;20.00;53.50
59975;DHT22;62136;-35.664;-63.766;2023-04-24T10:56:06;20.00;53.60
59975;DHT22;62136;-35.664;-63.766;2023-04-24T11:01:32;20.00;53.50
59975;DHT22;62136;-35.664;-63.766;2023-04-24T11:04:03;20.00;53.60
59975;DHT22;62136;-35.664;-63.766;2023-04-24T11:06:37;20.00;53.70
59975;DHT22;62136;-35.664;-63.766;2023-04-24T11:09:08;19.90;53.70
59975;DHT22;62136;-35.664;-63.766;2023-04-24T11:11:38;19.90;53.80
59975;DHT22;62136;-35.664;-63.766;2023-04-24T11:14:09;19.90;53.80
59975;DHT22;62136;-35.664;-63.766;2023-04-24T11:26:56;19.80;54.20
59975;DHT22;62136;-35.664;-63.766;2023-04-24T11:29:42;19.80;54.30
59975;DHT22;62136;-35.664;-63.766;2023-04-24T11:35:01;19.80;54.50
59975;DHT22;62136;-35.664;-63.766;2023-04-24T11:37:33;19.80;54.70
59975;DHT22;62136;-35.664;-63.766;2023-04-24T11:40:01;19.70;54.50
59975;DHT22;62136;-35.664;-63.766;2023-04-24T11:42:29;19.70;54.90
59975;DHT22;62136;-35.664;-63.766;2023-04-24T11:45:00;19.70;55.10
59975;DHT22;62136;-35.664;-63.766;2023-04-24T11:47:29;19.70;55.20
59975;DHT22;62136;-35.664;-63.766;2023-04-24T11:49:58;19.70;55.30
59975;DHT22;62136;-35.664;-63.766;2023-04-24T11:52:28;19.70;55.40
59975;DHT22;62136;-35.664;-63.766;2023-04-24T11:54:56;19.70;55.70
59975;DHT22;62136;-35.664;-63.766;2023-04-24T11:57:25;19.70;55.60
59975;DHT22;62136;-35.664;-63.766;2023-04-24T12:00:00;19.60;56.20
59975;DHT22;62136;-35.664;-63.766;2023-04-24T12:02:28;19.60;56.50
59975;DHT22;62136;-35.664;-63.766;2023-04-24T12:04:56;19.60;56.70
59975;DHT22;62136;-35.664;-63.766;2023-04-24T12:07:23;19.60;56.90
59975;DHT22;62136;-35.664;-63.766;2023-04-24T12:10:00;19.60;57.30
59975;DHT22;62136;-35.664;-63.766;2023-04-24T12:12:27;19.60;57.80
59975;DHT22;62136;-35.664;-63.766;2023-04-24T12:14:56;19.60;57.70
59975;DHT22;62136;-35.664;-63.766;2023-04-24T12:17:32;19.60;58.10
59975;DHT22;62136;-35.664;-63.766;2023-04-24T12:20:07;19.60;57.80
59975;DHT22;62136;-35.664;-63.766;2023-04-24T12:25:24;19.70;59.00
59975;DHT22;62136;-35.664;-63.766;2023-04-24T12:30:53;19.70;59.70
59975;DHT22;62136;-35.664;-63.766;2023-04-24T12:33:21;19.70;60.50
59975;DHT22;62136;-35.664;-63.766;2023-04-24T12:35:51;19.70;60.70
59975;DHT22;62136;-35.664;-63.766;2023-04-24T12:38:23;19.70;61.80
59975;DHT22;62136;-35.664;-63.766;2023-04-24T12:41:21;19.70;62.10
59975;DHT22;62136;-35.664;-63.766;2023-04-24T12:43:55;19.70;63.10
59975;DHT22;62136;-35.664;-63.766;2023-04-24T12:46:31;19.80;63.10
59975;DHT22;62136;-35.664;-63.766;2023-04-24T12:48:58;19.80;64.50
59975;DHT22;62136;-35.664;-63.766;2023-04-24T12:51:26;19.80;63.90
59975;DHT22;62136;-35.664;-63.766;2023-04-24T12:53:53;19.80;65.60
59975;DHT22;62136;-35.664;-63.766;2023-04-24T12:56:20;19.80;66.00
59975;DHT22;62136;-35.664;-63.766;2023-04-24T12:58:47;19.90;66.80
59975;DHT22;62136;-35.664;-63.766;2023-04-24T13:01:14;19.90;67.60
59975;DHT22;62136;-35.664;-63.766;2023-04-24T13:03:41;19.90;68.50
59975;DHT22;62136;-35.664;-63.766;2023-04-24T13:06:09;19.90;68.70
59975;DHT22;62136;-35.664;-63.766;2023-04-24T13:08:38;19.90;69.20
59975;DHT22;62136;-35.664;-63.766;2023-04-24T13:11:05;20.00;70.70
59975;DHT22;62136;-35.664;-63.766;2023-04-24T13:13:35;20.00;71.40
59975;DHT22;62136;-35.664;-63.766;2023-04-24T13:16:02;20.00;71.20
59975;DHT22;62136;-35.664;-63.766;2023-04-24T13:18:29;20.00;71.60
59975;DHT22;62136;-35.664;-63.766;2023-04-24T13:20:58;20.10;72.70
59975;DHT22;62136;-35.664;-63.766;2023-04-24T13:23:25;20.10;74.90
59975;DHT22;62136;-35.664;-63.766;2023-04-24T13:25:52;20.10;74.20
59975;DHT22;62136;-35.664;-63.766;2023-04-24T13:28:21;20.10;76.70
59975;DHT22;62136;-35.664;-63.766;2023-04-24T13:30:48;20.20;77.20
59975;DHT22;62136;-35.664;-63.766;2023-04-24T13:33:15;20.20;75.50
59975;DHT22;62136;-35.664;-63.766;2023-04-24T13:35:42;20.20;77.90
59975;DHT22;62136;-35.664;-63.766;2023-04-24T13:38:09;20.30;78.80
59975;DHT22;62136;-35.664;-63.766;2023-04-24T13:40:37;20.30;80.10
59975;DHT22;62136;-35.664;-63.766;2023-04-24T13:43:04;20.30;79.00
59975;DHT22;62136;-35.664;-63.766;2023-04-24T13:45:31;20.30;80.60
59975;DHT22;62136;-35.664;-63.766;2023-04-24T13:47:58;20.40;79.00
59975;DHT22;62136;-35.664;-63.766;2023-04-24T13:50:25;20.40;80.60
59975;DHT22;62136;-35.664;-63.766;2023-04-24T13:52:52;20.40;80.80
59975;DHT22;62136;-35.664;-63.766;2023-04-24T13:55:21;20.50;81.50
59975;DHT22;62136;-35.664;-63.766;2023-04-24T13:57:49;20.50;81.00
59975;DHT22;62136;-35.664;-63.766;2023-04-24T14:00:16;20.60;81.50
59975;DHT22;62136;-35.664;-63.766;2023-04-24T14:02:44;20.50;81.40
59975;DHT22;62136;-35.664;-63.766;2023-04-24T14:05:11;20.60;79.10
59975;DHT22;62136;-35.664;-63.766;2023-04-24T14:07:38;20.60;80.50
59975;DHT22;62136;-35.664;-63.766;2023-04-24T14:10:05;20.70;81.00
59975;DHT22;62136;-35.664;-63.766;2023-04-24T14:12:32;20.70;80.40
59975;DHT22;62136;-35.664;-63.766;2023-04-24T14:15:00;20.70;79.40
59975;DHT22;62136;-35.664;-63.766;2023-04-24T14:17:28;20.80;80.20
59975;DHT22;62136;-35.664;-63.766;2023-04-24T14:19:55;20.80;78.10
59975;DHT22;62136;-35.664;-63.766;2023-04-24T14:22:23;20.80;77.90
59975;DHT22;62136;-35.664;-63.766;2023-04-24T14:24:50;20.90;78.20
59975;DHT22;62136;-35.664;-63.766;2023-04-24T14:27:17;20.90;77.50
59975;DHT22;62136;-35.664;-63.766;2023-04-24T14:29:44;20.90;78.60
59975;DHT22;62136;-35.664;-63.766;2023-04-24T14:32:12;21.00;80.40
59975;DHT22;62136;-35.664;-63.766;2023-04-24T14:34:41;21.10;82.00
59975;DHT22;62136;-35.664;-63.766;2023-04-24T14:37:08;21.20;80.70
59975;DHT22;62136;-35.664;-63.766;2023-04-24T14:39:35;21.30;81.10
59975;DHT22;62136;-35.664;-63.766;2023-04-24T14:42:02;21.30;80.20
59975;DHT22;62136;-35.664;-63.766;2023-04-24T14:44:29;21.40;79.20
59975;DHT22;62136;-35.664;-63.766;2023-04-24T14:46:56;21.50;80.00
59975;DHT22;62136;-35.664;-63.766;2023-04-24T14:49:24;21.60;80.20
59975;DHT22;62136;-35.664;-63.766;2023-04-24T14:51:51;21.70;80.40
59975;DHT22;62136;-35.664;-63.766;2023-04-24T14:54:18;21.70;79.50
59975;DHT22;62136;-35.664;-63.766;2023-04-24T14:56:46;21.80;79.30
59975;DHT22;62136;-35.664;-63.766;2023-04-24T14:59:14;21.90;79.20
59975;DHT22;62136;-35.664;-63.766;2023-04-24T15:01:41;21.90;78.60
59975;DHT22;62136;-35.664;-63.766;2023-04-24T15:04:08;22.00;76.70
59975;DHT22;62136;-35.664;-63.766;2023-04-24T15:06:35;22.00;79.30
59975;DHT22;62136;-35.664;-63.766;2023-04-24T15:09:02;22.10;77.90
59975;DHT22;62136;-35.664;-63.766;2023-04-24T15:11:29;22.10;76.30
59975;DHT22;62136;-35.664;-63.766;2023-04-24T15:13:57;22.20;74.80
59975;DHT22;62136;-35.664;-63.766;2023-04-24T15:16:24;22.30;75.90
59975;DHT22;62136;-35.664;-63.766;2023-04-24T15:18:54;22.30;75.80